Terminal Aerodrome Forecast
Issued by NWS Springfield, MO

Home | Current Version | Previous Version | Text Only | Print | Product List | Glossary On
Versions: 1 2 3 4 5 6 7 8 9 10 11 12 13 14 15 16
054
FTUS43 KSGF 141037 AAB
TAFSGF
TAF AMD
KSGF 141037Z 1411/1506 14015G23KT P6SM OVC025
     FM141600 15010KT P6SM OVC015
     FM142100 22007KT P6SM OVC025
     FM150000 VRB04KT P6SM OVC250=

USA.gov is the U.S. government's official web portal to all federal, state and local government web resources and services.